createdAt,value
2022-07-25T00:00:12.832Z,24.50
2022-07-25T00:02:41.733Z,24.50
2022-07-25T00:05:11.450Z,24.60
2022-07-25T00:07:39.408Z,24.60
2022-07-25T00:10:09.134Z,24.60
2022-07-25T00:12:37.196Z,24.60
2022-07-25T00:15:06.293Z,24.50
2022-07-25T00:17:34.276Z,24.50
2022-07-25T00:20:02.856Z,24.60
2022-07-25T00:22:32.239Z,24.50
2022-07-25T00:25:00.223Z,24.60
2022-07-25T00:27:28.389Z,24.40
2022-07-25T00:29:56.491Z,24.40
2022-07-25T00:32:24.525Z,24.40
2022-07-25T00:34:52.697Z,24.40
2022-07-25T00:37:20.835Z,24.40
2022-07-25T00:39:50.186Z,24.50
2022-07-25T00:42:18.225Z,24.50
2022-07-25T00:44:46.429Z,24.50
2022-07-25T00:47:14.424Z,24.40
2022-07-25T00:49:42.666Z,24.20
2022-07-25T00:52:10.823Z,24.20
2022-07-25T00:54:38.854Z,24.20
2022-07-25T00:57:08.403Z,24.20
2022-07-25T00:59:36.438Z,24.20
2022-07-25T01:02:04.651Z,24.10
2022-07-25T01:04:32.810Z,24.10
2022-07-25T01:07:01.971Z,24.10
2022-07-25T01:09:30.529Z,24.10
2022-07-25T01:11:58.500Z,24.10
2022-07-25T01:14:27.993Z,24.10
2022-07-25T01:16:56.446Z,24.00
2022-07-25T01:19:24.460Z,23.90
2022-07-25T01:21:55.920Z,23.90
2022-07-25T01:24:23.901Z,23.80
2022-07-25T01:26:51.985Z,23.80
2022-07-25T01:29:20.113Z,23.70
2022-07-25T01:31:48.144Z,23.60
2022-07-25T01:34:16.188Z,23.50
2022-07-25T01:36:44.157Z,23.60
2022-07-25T01:39:13.569Z,23.50
2022-07-25T01:41:41.517Z,23.50
2022-07-25T01:44:10.026Z,23.50
2022-07-25T01:46:38.284Z,23.60
2022-07-25T01:49:06.518Z,23.50
2022-07-25T01:51:34.868Z,23.50
2022-07-25T01:54:03.409Z,23.50
2022-07-25T01:56:35.189Z,23.40
2022-07-25T01:59:04.334Z,23.40
2022-07-25T02:01:32.606Z,23.40
2022-07-25T02:04:00.755Z,23.30
2022-07-25T02:06:28.866Z,23.30
2022-07-25T02:09:00.224Z,23.30
2022-07-25T02:11:28.256Z,23.20
2022-07-25T02:13:57.706Z,23.20
2022-07-25T02:16:29.023Z,23.10
2022-07-25T02:18:57.689Z,23.20
2022-07-25T02:21:27.111Z,23.20
2022-07-25T02:23:55.035Z,23.20
2022-07-25T02:26:23.066Z,23.20
2022-07-25T02:28:51.756Z,23.10
2022-07-25T02:31:21.123Z,23.10
2022-07-25T02:33:49.217Z,23.20
2022-07-25T02:36:17.297Z,23.10
2022-07-25T02:38:45.456Z,23.20
2022-07-25T02:41:13.556Z,23.10
2022-07-25T02:43:41.536Z,23.00
2022-07-25T02:46:09.585Z,23.10
2022-07-25T02:48:39.139Z,23.00
2022-07-25T02:51:07.461Z,23.10
2022-07-25T02:53:56.205Z,23.00
2022-07-25T02:56:23.490Z,23.00
2022-07-25T02:58:51.761Z,23.00
2022-07-25T03:01:19.978Z,23.00
2022-07-25T03:03:49.443Z,23.00
2022-07-25T03:06:17.608Z,22.90
2022-07-25T03:08:45.591Z,22.90
2022-07-25T03:11:18.288Z,22.90
2022-07-25T03:13:46.263Z,23.00
2022-07-25T03:16:14.407Z,23.00
2022-07-25T03:18:42.412Z,23.00
2022-07-25T03:21:11.942Z,22.90
2022-07-25T03:23:40.180Z,22.90
2022-07-25T03:26:08.128Z,22.80
2022-07-25T03:28:36.555Z,22.80
2022-07-25T03:31:05.254Z,22.90
2022-07-25T03:33:33.377Z,22.90
2022-07-25T03:36:01.371Z,22.80
2022-07-25T03:38:30.815Z,22.80
2022-07-25T03:40:58.807Z,22.70
2022-07-25T03:43:26.784Z,22.80
2022-07-25T03:45:54.884Z,22.80
2022-07-25T03:48:23.043Z,22.70
2022-07-25T03:50:51.095Z,22.70
2022-07-25T03:53:19.295Z,22.60
2022-07-25T03:55:48.659Z,22.50
2022-07-25T03:58:16.810Z,22.60
2022-07-25T04:00:44.785Z,22.60
2022-07-25T04:03:14.459Z,22.40
2022-07-25T04:05:47.387Z,22.40
2022-07-25T04:08:15.846Z,22.50
2022-07-25T04:10:44.025Z,22.50
2022-07-25T04:13:13.321Z,22.60
2022-07-25T04:15:41.327Z,22.50
2022-07-25T04:18:09.373Z,22.40
2022-07-25T04:20:42.210Z,22.50
2022-07-25T04:23:10.451Z,22.40
2022-07-25T04:25:38.705Z,22.40
2022-07-25T04:28:06.708Z,22.40
2022-07-25T04:30:36.162Z,22.40
2022-07-25T04:33:04.303Z,22.50
2022-07-25T04:35:32.297Z,22.50
2022-07-25T04:38:00.252Z,22.50
2022-07-25T04:40:28.380Z,22.50
2022-07-25T04:42:56.338Z,22.50
2022-07-25T04:45:24.657Z,22.50
2022-07-25T04:47:54.791Z,22.60
2022-07-25T04:50:25.002Z,22.70
2022-07-25T04:52:53.258Z,22.60
2022-07-25T04:55:21.370Z,22.70
2022-07-25T04:57:49.520Z,22.80
2022-07-25T05:00:18.232Z,22.80
2022-07-25T05:02:46.191Z,22.90
2022-07-25T05:05:21.484Z,23.00
2022-07-25T05:07:50.201Z,23.00
2022-07-25T05:10:18.700Z,23.10
2022-07-25T05:12:46.747Z,23.20
2022-07-25T05:15:14.825Z,23.30
2022-07-25T05:17:42.992Z,23.30
2022-07-25T05:20:12.477Z,23.40
2022-07-25T05:22:42.170Z,23.50
2022-07-25T05:25:11.912Z,23.60
2022-07-25T05:27:40.466Z,23.70
2022-07-25T05:30:10.659Z,23.90
2022-07-25T05:32:38.830Z,24.10
2022-07-25T05:35:08.941Z,24.20
2022-07-25T05:37:37.842Z,24.20
2022-07-25T05:40:09.104Z,24.10
2022-07-25T05:42:37.159Z,24.10
2022-07-25T05:45:05.955Z,24.10
2022-07-25T05:47:34.324Z,24.20
2022-07-25T05:50:03.143Z,24.20
2022-07-25T05:52:31.248Z,24.40
2022-07-25T05:54:59.222Z,24.60
2022-07-25T05:57:28.962Z,24.70
2022-07-25T05:59:56.921Z,24.80
2022-07-25T06:02:25.644Z,24.80
2022-07-25T06:04:53.743Z,25.00
2022-07-25T06:07:21.831Z,25.10
2022-07-25T06:09:49.787Z,25.10
2022-07-25T06:12:17.774Z,25.20
2022-07-25T06:14:47.187Z,25.40
2022-07-25T06:17:15.515Z,25.50
2022-07-25T06:19:43.609Z,25.60
2022-07-25T06:22:11.776Z,25.70
2022-07-25T06:24:42.867Z,25.90
2022-07-25T06:27:10.928Z,26.00
2022-07-25T06:29:39.609Z,26.10
2022-07-25T06:32:09.129Z,26.20
2022-07-25T06:34:37.200Z,26.30
2022-07-25T06:37:05.200Z,26.40
2022-07-25T06:39:33.334Z,26.60
2022-07-25T06:42:03.982Z,26.70
2022-07-25T06:44:33.909Z,26.80
2022-07-25T06:47:01.951Z,26.90
2022-07-25T06:49:31.336Z,27.10
2022-07-25T06:51:59.512Z,27.40
2022-07-25T06:54:27.435Z,27.60
2022-07-25T06:56:55.520Z,27.80
2022-07-25T06:59:24.424Z,28.00
2022-07-25T07:01:52.569Z,28.20
2022-07-25T07:04:20.748Z,28.40
2022-07-25T07:06:50.081Z,28.70
2022-07-25T07:09:18.259Z,28.90
2022-07-25T07:11:46.309Z,29.00
2022-07-25T07:14:14.287Z,29.00
2022-07-25T07:16:42.488Z,29.00
2022-07-25T07:19:12.023Z,29.10
2022-07-25T07:21:40.115Z,29.30
2022-07-25T07:24:24.167Z,29.30
2022-07-25T07:26:53.600Z,29.30
2022-07-25T07:29:22.106Z,29.40
2022-07-25T07:31:50.235Z,29.40
2022-07-25T07:34:18.431Z,29.60
2022-07-25T07:36:46.469Z,29.60
2022-07-25T07:39:16.671Z,29.70
2022-07-25T07:41:44.940Z,29.90
2022-07-25T07:44:12.979Z,29.90
2022-07-25T07:46:44.400Z,30.00
2022-07-25T07:49:12.640Z,30.20
2022-07-25T07:51:40.882Z,30.50
2022-07-25T07:54:26.466Z,30.80
2022-07-25T07:56:55.972Z,31.40
2022-07-25T07:59:23.902Z,31.90
2022-07-25T08:01:58.162Z,32.60
2022-07-25T08:04:26.258Z,33.30
2022-07-25T08:06:54.407Z,33.40
2022-07-25T08:09:22.401Z,33.50
2022-07-25T08:11:50.414Z,33.50
2022-07-25T08:14:19.898Z,33.80
2022-07-25T08:16:47.913Z,34.10
2022-07-25T08:19:15.839Z,34.30
2022-07-25T08:21:43.995Z,34.60
2022-07-25T08:24:15.510Z,34.90
2022-07-25T08:26:43.585Z,35.40
2022-07-25T08:29:19.143Z,36.00
2022-07-25T08:31:49.627Z,37.10
2022-07-25T08:34:19.481Z,38.00
2022-07-25T08:36:47.634Z,38.70
2022-07-25T08:39:15.952Z,39.10
2022-07-25T08:41:44.573Z,39.10
2022-07-25T08:44:15.164Z,39.00
2022-07-25T08:46:44.331Z,39.00
2022-07-25T08:49:14.075Z,39.50
2022-07-25T08:51:42.408Z,40.40
2022-07-25T08:54:11.487Z,41.80
2022-07-25T08:56:39.504Z,42.30
2022-07-25T08:59:09.817Z,42.70
2022-07-25T09:01:40.668Z,43.10
2022-07-25T09:04:10.661Z,42.80
2022-07-25T09:06:50.359Z,42.70
2022-07-25T09:09:18.688Z,42.60
2022-07-25T09:11:46.623Z,42.30
2022-07-25T09:14:15.006Z,42.10
2022-07-25T09:16:45.081Z,41.50
2022-07-25T09:19:15.183Z,41.00
2022-07-25T09:21:46.278Z,40.40
2022-07-25T09:24:16.906Z,40.10
2022-07-25T09:26:47.014Z,40.00
2022-07-25T09:29:24.187Z,40.40
2022-07-25T09:31:53.201Z,40.40
2022-07-25T09:34:39.073Z,40.60
2022-07-25T09:37:10.627Z,40.70
2022-07-25T09:39:45.916Z,41.30
2022-07-25T09:42:24.657Z,42.00
2022-07-25T09:45:07.626Z,43.10
2022-07-25T09:47:38.255Z,45.10
2022-07-25T09:50:08.466Z,45.70
2022-07-25T09:52:39.285Z,47.10
2022-07-25T09:55:10.159Z,47.90
2022-07-25T09:57:38.658Z,48.50
2022-07-25T10:00:08.805Z,49.30
2022-07-25T10:02:47.112Z,49.40
2022-07-25T10:05:17.047Z,49.80
2022-07-25T10:07:49.067Z,49.80
2022-07-25T10:10:28.577Z,50.10
2022-07-25T10:13:05.228Z,49.80
2022-07-25T10:15:43.757Z,49.60
2022-07-25T10:18:12.235Z,50.00
2022-07-25T10:20:43.405Z,50.20
2022-07-25T10:23:27.062Z,50.30
2022-07-25T10:26:03.956Z,49.80
2022-07-25T10:28:40.437Z,49.90
2022-07-25T10:31:23.477Z,49.30
2022-07-25T10:33:56.957Z,49.50
2022-07-25T10:36:26.045Z,50.00
2022-07-25T10:38:59.178Z,49.80
2022-07-25T10:41:30.374Z,50.10
2022-07-25T10:44:02.868Z,50.50
2022-07-25T10:46:32.523Z,50.50
2022-07-25T10:49:05.757Z,49.80
2022-07-25T10:51:40.970Z,49.80
2022-07-25T10:54:19.470Z,48.90
2022-07-25T10:56:56.889Z,48.60
2022-07-25T10:59:33.959Z,48.50
2022-07-25T11:02:02.819Z,49.10
2022-07-25T11:04:31.276Z,49.40
2022-07-25T11:07:08.687Z,49.70
2022-07-25T11:09:38.701Z,49.90
2022-07-25T11:12:07.576Z,50.10
2022-07-25T11:14:37.620Z,50.10
2022-07-25T11:17:15.257Z,50.20
2022-07-25T11:19:44.501Z,49.80
2022-07-25T11:22:13.193Z,48.50
2022-07-25T11:24:43.912Z,47.20
2022-07-25T11:27:13.476Z,45.70
2022-07-25T11:29:42.560Z,44.30
2022-07-25T11:32:12.652Z,43.30
2022-07-25T11:34:43.558Z,42.50
2022-07-25T11:37:14.416Z,41.70
2022-07-25T11:39:46.263Z,40.90
2022-07-25T11:42:16.539Z,40.40
2022-07-25T11:44:48.123Z,39.40
2022-07-25T11:47:27.781Z,39.10
2022-07-25T11:49:59.287Z,38.90
2022-07-25T11:52:29.944Z,38.50
2022-07-25T11:55:01.190Z,38.50
2022-07-25T11:57:30.971Z,38.30
2022-07-25T12:00:00.966Z,38.10
2022-07-25T12:02:32.209Z,37.90
2022-07-25T12:05:02.351Z,37.70
2022-07-25T12:07:41.698Z,37.60
2022-07-25T12:10:13.668Z,37.60
2022-07-25T12:12:51.178Z,37.50
2022-07-25T12:15:21.798Z,37.50
2022-07-25T12:17:50.810Z,37.40
2022-07-25T12:20:20.901Z,37.30
2022-07-25T12:22:49.627Z,37.20
2022-07-25T12:25:19.143Z,37.20
2022-07-25T12:27:47.868Z,37.10
2022-07-25T12:30:15.876Z,37.10
2022-07-25T12:32:44.120Z,37.00
2022-07-25T12:35:13.966Z,36.90
2022-07-25T12:37:43.118Z,36.80
2022-07-25T12:40:12.992Z,36.70
2022-07-25T12:42:42.743Z,36.70
2022-07-25T12:45:12.301Z,36.70
2022-07-25T12:47:40.523Z,36.70
2022-07-25T12:50:09.376Z,36.50
2022-07-25T12:52:38.395Z,36.50
2022-07-25T12:55:07.824Z,36.40
2022-07-25T12:57:44.440Z,36.30
2022-07-25T13:00:15.891Z,36.40
2022-07-25T13:02:44.355Z,36.40
2022-07-25T13:05:12.704Z,36.40
2022-07-25T13:07:41.375Z,36.50
2022-07-25T13:10:10.444Z,36.40
2022-07-25T13:12:38.626Z,36.40
2022-07-25T13:15:09.054Z,36.40
2022-07-25T13:17:37.359Z,36.40
2022-07-25T13:20:06.541Z,36.30
2022-07-25T13:22:34.642Z,36.30
2022-07-25T13:25:02.600Z,36.30
2022-07-25T13:27:30.680Z,36.20
2022-07-25T13:29:59.005Z,36.30
2022-07-25T13:32:28.521Z,36.30
2022-07-25T13:34:56.801Z,36.30
2022-07-25T13:37:24.973Z,36.30
2022-07-25T13:39:53.051Z,36.20
2022-07-25T13:42:21.008Z,36.20
2022-07-25T13:44:49.068Z,36.20
2022-07-25T13:47:17.421Z,36.10
2022-07-25T13:49:46.793Z,36.10
2022-07-25T13:52:15.112Z,36.10
2022-07-25T13:54:43.308Z,36.00
2022-07-25T13:57:11.353Z,36.00
2022-07-25T13:59:39.446Z,35.90
2022-07-25T14:02:07.576Z,35.90
2022-07-25T14:04:35.685Z,35.60
2022-07-25T14:07:05.109Z,35.50
2022-07-25T14:09:33.219Z,35.50
2022-07-25T14:12:01.165Z,35.50
2022-07-25T14:14:29.275Z,35.50
2022-07-25T14:16:58.743Z,35.40
2022-07-25T14:19:26.857Z,35.40
2022-07-25T14:21:54.803Z,35.40
2022-07-25T14:24:24.131Z,35.30
2022-07-25T14:26:54.002Z,35.20
2022-07-25T14:29:25.955Z,35.10
2022-07-25T14:31:56.997Z,35.10
2022-07-25T14:34:25.145Z,35.00
2022-07-25T14:36:53.268Z,35.00
2022-07-25T14:39:21.523Z,35.00
2022-07-25T14:41:51.328Z,34.90
2022-07-25T14:44:19.508Z,34.80
2022-07-25T14:46:49.942Z,34.80
2022-07-25T14:49:18.721Z,34.80
2022-07-25T14:51:47.774Z,34.70
2022-07-25T14:54:15.995Z,34.70
2022-07-25T14:56:46.128Z,34.70
2022-07-25T14:59:15.524Z,34.80
2022-07-25T15:01:43.606Z,34.80
2022-07-25T15:04:11.640Z,34.80
2022-07-25T15:06:39.889Z,34.80
2022-07-25T15:09:08.375Z,34.80
2022-07-25T15:11:37.271Z,34.90
2022-07-25T15:14:05.265Z,34.90
2022-07-25T15:16:34.882Z,35.00
2022-07-25T15:19:16.354Z,34.90
2022-07-25T15:21:45.826Z,34.90
2022-07-25T15:24:14.068Z,34.80
2022-07-25T15:26:42.194Z,34.70
2022-07-25T15:29:11.910Z,34.70
2022-07-25T15:31:41.886Z,34.70
2022-07-25T15:34:09.905Z,34.60
2022-07-25T15:36:37.949Z,34.60
2022-07-25T15:39:06.483Z,34.70
2022-07-25T15:41:35.080Z,34.70
2022-07-25T15:44:03.411Z,34.70
2022-07-25T15:46:32.882Z,34.70
2022-07-25T15:49:04.268Z,34.70
2022-07-25T15:51:32.578Z,34.60
2022-07-25T15:54:00.553Z,34.50
2022-07-25T15:56:30.015Z,34.50
2022-07-25T15:58:58.044Z,34.40
2022-07-25T16:01:26.341Z,34.50
2022-07-25T16:03:55.305Z,34.50
2022-07-25T16:06:24.785Z,34.50
2022-07-25T16:08:53.305Z,34.50
2022-07-25T16:11:21.316Z,34.50
2022-07-25T16:13:49.282Z,34.50
2022-07-25T16:16:17.417Z,34.50
2022-07-25T16:18:45.402Z,34.50
2022-07-25T16:21:13.527Z,34.50
2022-07-25T16:23:45.470Z,34.50
2022-07-25T16:26:13.863Z,34.50
2022-07-25T16:28:41.973Z,34.40
2022-07-25T16:31:10.195Z,34.30
2022-07-25T16:33:38.415Z,34.30
2022-07-25T16:36:07.424Z,34.30
2022-07-25T16:38:35.580Z,34.30
2022-07-25T16:41:04.964Z,34.30
2022-07-25T16:43:33.167Z,34.20
2022-07-25T16:46:02.191Z,34.20
2022-07-25T16:48:30.665Z,34.10
2022-07-25T16:50:59.024Z,34.20
2022-07-25T16:53:27.391Z,34.10
2022-07-25T16:55:55.629Z,34.00
2022-07-25T16:58:25.559Z,34.00
2022-07-25T17:00:53.584Z,34.00
2022-07-25T17:03:22.014Z,33.90
2022-07-25T17:05:51.617Z,33.90
2022-07-25T17:08:19.866Z,33.80
2022-07-25T17:10:47.799Z,33.90
2022-07-25T17:13:15.783Z,33.90
2022-07-25T17:15:45.760Z,33.80
2022-07-25T17:18:14.197Z,33.70
2022-07-25T17:20:42.329Z,33.70
2022-07-25T17:23:11.221Z,33.70
2022-07-25T17:25:41.210Z,33.70
2022-07-25T17:28:09.697Z,33.60
2022-07-25T17:30:37.946Z,33.60
2022-07-25T17:33:07.444Z,33.60
2022-07-25T17:35:36.577Z,33.60
2022-07-25T17:38:04.850Z,33.60
2022-07-25T17:40:33.086Z,33.50
2022-07-25T17:43:01.427Z,33.60
2022-07-25T17:45:29.670Z,33.60
2022-07-25T17:47:57.862Z,33.60
2022-07-25T17:50:29.614Z,33.60
2022-07-25T17:52:59.692Z,33.60
2022-07-25T17:55:28.811Z,33.60
2022-07-25T17:57:59.501Z,33.60
2022-07-25T18:00:28.304Z,33.50
2022-07-25T18:02:56.636Z,33.50
2022-07-25T18:05:26.815Z,33.50
2022-07-25T18:07:55.218Z,33.40
2022-07-25T18:10:23.501Z,33.40
2022-07-25T18:12:51.766Z,33.30
2022-07-25T18:15:20.522Z,33.20
2022-07-25T18:17:49.402Z,33.20
2022-07-25T18:20:17.942Z,32.90
2022-07-25T18:22:47.410Z,32.90
2022-07-25T18:25:15.884Z,32.80
2022-07-25T18:27:45.293Z,32.70
2022-07-25T18:30:15.080Z,32.50
2022-07-25T18:32:43.640Z,32.30
2022-07-25T18:35:12.153Z,32.00
2022-07-25T18:37:40.334Z,32.00
2022-07-25T18:40:11.025Z,31.80
2022-07-25T18:42:39.263Z,31.70
2022-07-25T18:45:08.697Z,31.60
2022-07-25T18:47:37.600Z,31.50
2022-07-25T18:50:07.104Z,31.60
2022-07-25T18:52:36.179Z,31.40
2022-07-25T18:55:05.573Z,31.40
2022-07-25T18:57:35.478Z,31.20
2022-07-25T19:00:04.439Z,31.00
2022-07-25T19:02:32.661Z,30.80
2022-07-25T19:05:00.641Z,30.80
2022-07-25T19:07:30.153Z,30.80
2022-07-25T19:09:58.427Z,30.80
2022-07-25T19:12:27.271Z,30.80
2022-07-25T19:14:56.811Z,30.80
2022-07-25T19:17:25.064Z,30.60
2022-07-25T19:19:53.313Z,30.60
2022-07-25T19:22:21.728Z,30.50
2022-07-25T19:24:49.894Z,30.40
2022-07-25T19:27:18.305Z,30.40
2022-07-25T19:29:46.480Z,30.30
2022-07-25T19:32:16.244Z,30.30
2022-07-25T19:34:46.446Z,30.30
2022-07-25T19:37:14.459Z,30.30
2022-07-25T19:39:42.478Z,30.20
2022-07-25T19:42:12.360Z,30.10
2022-07-25T19:44:40.621Z,30.10
2022-07-25T19:47:11.644Z,30.00
2022-07-25T19:49:42.711Z,30.10
2022-07-25T19:52:11.878Z,30.00
2022-07-25T19:54:40.533Z,30.00
2022-07-25T19:57:08.524Z,30.00
2022-07-25T19:59:36.691Z,30.00
2022-07-25T20:02:06.273Z,29.90
2022-07-25T20:04:34.527Z,30.00
2022-07-25T20:07:04.465Z,29.90
2022-07-25T20:09:33.609Z,29.90
2022-07-25T20:12:02.797Z,29.90
2022-07-25T20:14:33.925Z,29.80
2022-07-25T20:17:03.078Z,29.70
2022-07-25T20:19:31.159Z,29.70
2022-07-25T20:22:00.911Z,29.50
2022-07-25T20:24:30.579Z,29.50
2022-07-25T20:26:58.740Z,29.40
2022-07-25T20:29:26.838Z,29.40
2022-07-25T20:31:54.955Z,29.30
2022-07-25T20:34:23.048Z,29.20
2022-07-25T20:36:51.004Z,29.00
2022-07-25T20:39:19.231Z,28.80
2022-07-25T20:41:48.572Z,28.70
2022-07-25T20:44:16.611Z,28.60
2022-07-25T20:46:44.598Z,28.40
2022-07-25T20:49:13.644Z,28.20
2022-07-25T20:51:42.028Z,28.10
2022-07-25T20:54:10.416Z,28.00
2022-07-25T20:56:38.681Z,27.80
2022-07-25T20:59:08.517Z,27.50
2022-07-25T21:01:37.677Z,27.40
2022-07-25T21:04:07.849Z,27.40
2022-07-25T21:06:36.890Z,27.10
2022-07-25T21:09:06.279Z,26.90
2022-07-25T21:11:35.944Z,26.80
2022-07-25T21:14:04.835Z,26.60
2022-07-25T21:16:34.889Z,26.50
2022-07-25T21:19:03.042Z,26.00
2022-07-25T21:21:31.793Z,25.90
2022-07-25T21:23:59.733Z,25.80
2022-07-25T21:26:27.702Z,25.80
2022-07-25T21:28:55.772Z,25.50
2022-07-25T21:31:23.914Z,25.30
2022-07-25T21:33:53.382Z,25.10
2022-07-25T21:36:21.318Z,25.00
2022-07-25T21:38:49.289Z,24.90
2022-07-25T21:41:17.529Z,24.60
2022-07-25T21:43:45.550Z,24.20
2022-07-25T21:46:13.921Z,23.90
2022-07-25T21:48:59.317Z,23.80
2022-07-25T21:51:36.801Z,23.50
2022-07-25T21:54:09.571Z,23.10
2022-07-25T21:56:37.594Z,23.20
2022-07-25T21:59:06.845Z,23.00
2022-07-25T22:01:35.674Z,23.00
2022-07-25T22:04:03.794Z,23.00
2022-07-25T22:06:33.347Z,22.90
2022-07-25T22:09:01.536Z,22.90
2022-07-25T22:11:42.880Z,22.70
2022-07-25T22:14:14.553Z,22.60
2022-07-25T22:16:42.765Z,22.40
2022-07-25T22:19:11.433Z,22.20
2022-07-25T22:21:42.167Z,22.10
2022-07-25T22:24:10.892Z,22.00
2022-07-25T22:26:39.014Z,21.80
2022-07-25T22:29:07.413Z,21.70
2022-07-25T22:31:35.856Z,21.60
2022-07-25T22:34:04.067Z,21.60
2022-07-25T22:36:32.143Z,21.40
2022-07-25T22:39:01.561Z,21.40
2022-07-25T22:41:29.912Z,21.40
2022-07-25T22:43:59.844Z,21.30
2022-07-25T22:46:29.400Z,21.30
2022-07-25T22:48:58.367Z,21.30
2022-07-25T22:51:27.248Z,21.20
2022-07-25T22:53:55.208Z,21.20
2022-07-25T22:56:25.457Z,21.20
2022-07-25T22:58:53.557Z,21.20
2022-07-25T23:01:21.830Z,21.20
2022-07-25T23:03:51.163Z,21.10
2022-07-25T23:06:20.323Z,21.10
2022-07-25T23:08:48.339Z,21.00
2022-07-25T23:11:16.447Z,21.00
2022-07-25T23:13:45.824Z,21.00
2022-07-25T23:16:13.962Z,20.90
2022-07-25T23:18:42.056Z,21.00
2022-07-25T23:21:16.995Z,20.90
2022-07-25T23:23:49.761Z,20.80
2022-07-25T23:26:18.252Z,20.70
2022-07-25T23:28:47.750Z,20.70
2022-07-25T23:31:16.161Z,20.60
2022-07-25T23:33:44.436Z,20.70
2022-07-25T23:36:12.406Z,20.60
2022-07-25T23:38:40.539Z,20.50
2022-07-25T23:41:08.589Z,20.30
2022-07-25T23:43:56.060Z,20.20
2022-07-25T23:46:27.750Z,20.20
2022-07-25T23:48:58.109Z,20.20
2022-07-25T23:51:26.584Z,20.30
2022-07-25T23:53:54.595Z,20.40
2022-07-25T23:56:22.775Z,20.20
2022-07-25T23:58:51.128Z,20.20
